sensor_id;sensor_type;location;lat;lon;timestamp;pressure;altitude;pressure_sealevel;temperature;humidity
18900;BME280;9582;52.018;6.306;2022-09-03T00:00:35;101058.94;;;16.07;56.70
18900;BME280;9582;52.018;6.306;2022-09-03T00:03:06;101064.28;;;16.06;56.57
18900;BME280;9582;52.018;6.306;2022-09-03T00:05:36;101064.78;;;15.98;56.70
18900;BME280;9582;52.018;6.306;2022-09-03T00:08:09;101065.75;;;15.97;57.19
18900;BME280;9582;52.018;6.306;2022-09-03T00:10:44;101067.41;;;15.98;56.78
18900;BME280;9582;52.018;6.306;2022-09-03T00:13:15;101064.41;;;15.90;57.06
18900;BME280;9582;52.018;6.306;2022-09-03T00:15:44;101062.09;;;15.86;57.10
18900;BME280;9582;52.018;6.306;2022-09-03T00:18:14;101062.25;;;15.97;56.88
18900;BME280;9582;52.018;6.306;2022-09-03T00:20:45;101058.56;;;15.99;56.53
18900;BME280;9582;52.018;6.306;2022-09-03T00:23:19;101060.38;;;15.85;57.56
18900;BME280;9582;52.018;6.306;2022-09-03T00:25:50;101063.88;;;15.85;57.02
18900;BME280;9582;52.018;6.306;2022-09-03T00:28:19;101070.72;;;15.88;57.08
18900;BME280;9582;52.018;6.306;2022-09-03T00:30:55;101068.41;;;15.83;57.36
18900;BME280;9582;52.018;6.306;2022-09-03T00:33:28;101065.66;;;15.85;57.10
18900;BME280;9582;52.018;6.306;2022-09-03T00:36:04;101069.53;;;15.65;57.80
18900;BME280;9582;52.018;6.306;2022-09-03T00:38:36;101067.06;;;15.62;57.64
18900;BME280;9582;52.018;6.306;2022-09-03T00:41:07;101065.28;;;15.63;58.18
18900;BME280;9582;52.018;6.306;2022-09-03T00:43:49;101074.97;;;15.62;58.13
18900;BME280;9582;52.018;6.306;2022-09-03T00:46:23;101075.28;;;15.57;58.27
18900;BME280;9582;52.018;6.306;2022-09-03T00:49:07;101072.84;;;15.54;58.29
18900;BME280;9582;52.018;6.306;2022-09-03T00:51:43;101074.44;;;15.57;58.17
18900;BME280;9582;52.018;6.306;2022-09-03T00:54:20;101068.59;;;15.52;58.12
18900;BME280;9582;52.018;6.306;2022-09-03T00:57:04;101073.75;;;15.53;58.55
18900;BME280;9582;52.018;6.306;2022-09-03T00:59:37;101068.59;;;15.52;58.07
18900;BME280;9582;52.018;6.306;2022-09-03T01:02:18;101064.38;;;15.49;58.52
18900;BME280;9582;52.018;6.306;2022-09-03T01:05:03;101072.41;;;15.32;58.77
18900;BME280;9582;52.018;6.306;2022-09-03T01:07:39;101068.00;;;15.47;58.35
18900;BME280;9582;52.018;6.306;2022-09-03T01:10:17;101066.94;;;15.21;58.77
18900;BME280;9582;52.018;6.306;2022-09-03T01:12:52;101067.38;;;15.14;59.25
18900;BME280;9582;52.018;6.306;2022-09-03T01:15:27;101063.16;;;15.25;59.03
18900;BME280;9582;52.018;6.306;2022-09-03T01:18:14;101075.03;;;15.32;59.49
18900;BME280;9582;52.018;6.306;2022-09-03T01:20:54;101064.00;;;15.12;59.89
18900;BME280;9582;52.018;6.306;2022-09-03T01:26:30;101070.53;;;15.04;59.67
18900;BME280;9582;52.018;6.306;2022-09-03T01:29:15;101069.00;;;14.86;60.35
18900;BME280;9582;52.018;6.306;2022-09-03T01:31:53;101066.44;;;14.85;60.14
18900;BME280;9582;52.018;6.306;2022-09-03T01:34:32;101062.22;;;14.82;60.49
18900;BME280;9582;52.018;6.306;2022-09-03T01:37:08;101068.41;;;14.67;60.69
18900;BME280;9582;52.018;6.306;2022-09-03T01:39:48;101064.97;;;14.65;60.98
18900;BME280;9582;52.018;6.306;2022-09-03T01:42:22;101062.69;;;14.75;60.45
18900;BME280;9582;52.018;6.306;2022-09-03T01:45:10;101063.78;;;14.71;60.57
18900;BME280;9582;52.018;6.306;2022-09-03T01:47:59;101064.69;;;14.85;60.71
18900;BME280;9582;52.018;6.306;2022-09-03T01:50:38;101067.84;;;14.76;60.27
18900;BME280;9582;52.018;6.306;2022-09-03T01:53:11;101068.16;;;14.86;60.22
18900;BME280;9582;52.018;6.306;2022-09-03T01:55:53;101070.50;;;14.90;59.55
18900;BME280;9582;52.018;6.306;2022-09-03T01:58:28;101067.31;;;14.85;59.80
18900;BME280;9582;52.018;6.306;2022-09-03T02:01:01;101072.94;;;14.79;60.00
18900;BME280;9582;52.018;6.306;2022-09-03T02:03:34;101071.78;;;14.69;60.45
18900;BME280;9582;52.018;6.306;2022-09-03T02:06:03;101071.94;;;14.66;61.07
18900;BME280;9582;52.018;6.306;2022-09-03T02:08:30;101063.81;;;14.55;60.85
18900;BME280;9582;52.018;6.306;2022-09-03T02:10:57;101064.81;;;14.68;60.61
18900;BME280;9582;52.018;6.306;2022-09-03T02:13:29;101068.56;;;14.64;60.96
18900;BME280;9582;52.018;6.306;2022-09-03T02:16:00;101071.78;;;14.54;61.40
18900;BME280;9582;52.018;6.306;2022-09-03T02:18:30;101062.91;;;14.56;61.07
18900;BME280;9582;52.018;6.306;2022-09-03T02:20:59;101070.97;;;14.53;61.42
18900;BME280;9582;52.018;6.306;2022-09-03T02:23:27;101070.00;;;14.54;61.25
18900;BME280;9582;52.018;6.306;2022-09-03T02:25:56;101068.34;;;14.53;61.26
18900;BME280;9582;52.018;6.306;2022-09-03T02:28:22;101062.97;;;14.55;61.21
18900;BME280;9582;52.018;6.306;2022-09-03T02:30:50;101065.53;;;14.56;61.10
18900;BME280;9582;52.018;6.306;2022-09-03T02:33:17;101069.16;;;14.54;61.44
18900;BME280;9582;52.018;6.306;2022-09-03T02:35:44;101066.34;;;14.57;61.27
18900;BME280;9582;52.018;6.306;2022-09-03T02:38:15;101071.47;;;14.44;61.40
18900;BME280;9582;52.018;6.306;2022-09-03T02:40:42;101063.31;;;14.64;61.02
18900;BME280;9582;52.018;6.306;2022-09-03T02:43:13;101059.94;;;14.47;61.05
18900;BME280;9582;52.018;6.306;2022-09-03T02:45:45;101067.72;;;14.48;61.21
18900;BME280;9582;52.018;6.306;2022-09-03T02:48:15;101067.16;;;14.43;61.11
18900;BME280;9582;52.018;6.306;2022-09-03T02:50:47;101059.75;;;14.50;61.45
18900;BME280;9582;52.018;6.306;2022-09-03T02:53:14;101063.94;;;14.38;61.33
18900;BME280;9582;52.018;6.306;2022-09-03T02:55:40;101056.03;;;14.38;61.63
18900;BME280;9582;52.018;6.306;2022-09-03T02:58:07;101058.66;;;14.38;61.59
18900;BME280;9582;52.018;6.306;2022-09-03T03:00:34;101060.84;;;14.30;61.65
18900;BME280;9582;52.018;6.306;2022-09-03T03:03:01;101054.34;;;14.37;61.75
18900;BME280;9582;52.018;6.306;2022-09-03T03:05:34;101055.88;;;14.41;61.57
18900;BME280;9582;52.018;6.306;2022-09-03T03:08:03;101061.88;;;14.27;62.08
18900;BME280;9582;52.018;6.306;2022-09-03T03:10:29;101057.56;;;14.42;61.60
18900;BME280;9582;52.018;6.306;2022-09-03T03:12:55;101055.66;;;14.28;61.81
18900;BME280;9582;52.018;6.306;2022-09-03T03:15:22;101051.44;;;14.26;62.34
18900;BME280;9582;52.018;6.306;2022-09-03T03:17:49;101047.97;;;14.41;61.61
18900;BME280;9582;52.018;6.306;2022-09-03T03:20:15;101046.88;;;14.14;62.32
18900;BME280;9582;52.018;6.306;2022-09-03T03:22:42;101045.78;;;14.33;61.91
18900;BME280;9582;52.018;6.306;2022-09-03T03:25:10;101046.72;;;14.17;62.20
18900;BME280;9582;52.018;6.306;2022-09-03T03:27:37;101037.97;;;14.16;62.24
18900;BME280;9582;52.018;6.306;2022-09-03T03:30:06;101041.94;;;14.23;61.95
18900;BME280;9582;52.018;6.306;2022-09-03T03:32:34;101053.56;;;14.19;62.14
18900;BME280;9582;52.018;6.306;2022-09-03T03:35:01;101050.94;;;14.04;62.82
18900;BME280;9582;52.018;6.306;2022-09-03T03:37:27;101049.50;;;13.98;62.67
18900;BME280;9582;52.018;6.306;2022-09-03T03:39:54;101046.19;;;13.95;62.86
18900;BME280;9582;52.018;6.306;2022-09-03T03:42:22;101042.09;;;13.89;63.50
18900;BME280;9582;52.018;6.306;2022-09-03T03:44:48;101044.81;;;13.87;63.12
18900;BME280;9582;52.018;6.306;2022-09-03T03:47:15;101038.88;;;13.84;63.46
18900;BME280;9582;52.018;6.306;2022-09-03T03:49:42;101045.00;;;13.84;63.43
18900;BME280;9582;52.018;6.306;2022-09-03T03:52:09;101042.97;;;13.89;63.12
18900;BME280;9582;52.018;6.306;2022-09-03T03:54:36;101048.06;;;13.93;62.89
18900;BME280;9582;52.018;6.306;2022-09-03T03:57:02;101048.97;;;13.92;62.92
18900;BME280;9582;52.018;6.306;2022-09-03T03:59:30;101041.34;;;13.87;62.72
18900;BME280;9582;52.018;6.306;2022-09-03T04:01:57;101047.28;;;13.91;62.78
18900;BME280;9582;52.018;6.306;2022-09-03T04:04:23;101047.34;;;13.89;62.33
18900;BME280;9582;52.018;6.306;2022-09-03T04:06:50;101046.69;;;13.85;62.86
18900;BME280;9582;52.018;6.306;2022-09-03T04:09:16;101048.88;;;13.77;63.13
18900;BME280;9582;52.018;6.306;2022-09-03T04:11:43;101041.91;;;13.61;64.10
18900;BME280;9582;52.018;6.306;2022-09-03T04:14:09;101044.97;;;13.69;63.93
18900;BME280;9582;52.018;6.306;2022-09-03T04:16:37;101041.88;;;13.45;64.85
18900;BME280;9582;52.018;6.306;2022-09-03T04:19:03;101039.03;;;13.65;64.38
18900;BME280;9582;52.018;6.306;2022-09-03T04:21:30;101041.75;;;13.64;64.60
18900;BME280;9582;52.018;6.306;2022-09-03T04:23:57;101047.88;;;13.80;64.04
18900;BME280;9582;52.018;6.306;2022-09-03T04:26:26;101046.69;;;13.85;63.97
18900;BME280;9582;52.018;6.306;2022-09-03T04:28:55;101039.75;;;13.84;63.87
18900;BME280;9582;52.018;6.306;2022-09-03T04:31:22;101042.53;;;13.66;64.41
18900;BME280;9582;52.018;6.306;2022-09-03T04:33:50;101035.72;;;13.62;64.42
18900;BME280;9582;52.018;6.306;2022-09-03T04:36:18;101049.13;;;13.57;64.56
18900;BME280;9582;52.018;6.306;2022-09-03T04:38:46;101038.50;;;13.43;64.96
18900;BME280;9582;52.018;6.306;2022-09-03T04:41:15;101036.19;;;13.37;65.22
18900;BME280;9582;52.018;6.306;2022-09-03T04:43:42;101034.34;;;13.22;65.88
18900;BME280;9582;52.018;6.306;2022-09-03T04:46:10;101032.84;;;13.18;65.83
18900;BME280;9582;52.018;6.306;2022-09-03T04:48:37;101028.13;;;13.07;66.29
18900;BME280;9582;52.018;6.306;2022-09-03T04:51:07;101033.91;;;13.14;66.46
18900;BME280;9582;52.018;6.306;2022-09-03T04:53:36;101031.88;;;13.02;66.64
18900;BME280;9582;52.018;6.306;2022-09-03T04:56:11;101031.88;;;13.02;67.33
18900;BME280;9582;52.018;6.306;2022-09-03T04:58:38;101025.34;;;13.10;66.55
18900;BME280;9582;52.018;6.306;2022-09-03T05:01:07;101030.59;;;13.10;66.45
18900;BME280;9582;52.018;6.306;2022-09-03T05:03:33;101030.38;;;13.15;66.55
18900;BME280;9582;52.018;6.306;2022-09-03T05:06:01;101033.66;;;13.18;66.58
18900;BME280;9582;52.018;6.306;2022-09-03T05:08:31;101030.66;;;13.26;66.21
18900;BME280;9582;52.018;6.306;2022-09-03T05:11:01;101036.34;;;13.34;66.22
18900;BME280;9582;52.018;6.306;2022-09-03T05:13:28;101027.72;;;13.32;66.06
18900;BME280;9582;52.018;6.306;2022-09-03T05:15:58;101030.53;;;13.45;65.93
18900;BME280;9582;52.018;6.306;2022-09-03T05:18:24;101035.53;;;13.49;65.71
18900;BME280;9582;52.018;6.306;2022-09-03T05:20:57;101029.09;;;13.55;65.94
18900;BME280;9582;52.018;6.306;2022-09-03T05:23:23;101036.97;;;13.55;65.72
18900;BME280;9582;52.018;6.306;2022-09-03T05:25:55;101042.06;;;13.58;65.94
18900;BME280;9582;52.018;6.306;2022-09-03T05:28:23;101045.38;;;13.61;65.74
18900;BME280;9582;52.018;6.306;2022-09-03T05:30:57;101042.59;;;13.64;65.90
18900;BME280;9582;52.018;6.306;2022-09-03T05:33:24;101044.91;;;13.70;65.48
18900;BME280;9582;52.018;6.306;2022-09-03T05:35:50;101042.00;;;13.59;65.58
18900;BME280;9582;52.018;6.306;2022-09-03T05:38:17;101038.19;;;13.65;66.03
18900;BME280;9582;52.018;6.306;2022-09-03T05:40:44;101037.88;;;13.71;65.85
18900;BME280;9582;52.018;6.306;2022-09-03T05:43:12;101042.09;;;13.89;65.35
18900;BME280;9582;52.018;6.306;2022-09-03T05:45:38;101035.91;;;13.90;65.10
18900;BME280;9582;52.018;6.306;2022-09-03T05:48:06;101035.16;;;14.04;65.25
18900;BME280;9582;52.018;6.306;2022-09-03T05:50:32;101035.41;;;14.15;65.09
18900;BME280;9582;52.018;6.306;2022-09-03T05:52:59;101045.50;;;14.22;64.67
18900;BME280;9582;52.018;6.306;2022-09-03T05:55:25;101035.97;;;14.51;64.70
18900;BME280;9582;52.018;6.306;2022-09-03T05:57:53;101043.28;;;15.06;63.69
18900;BME280;9582;52.018;6.306;2022-09-03T06:00:21;101036.84;;;15.68;61.45
18900;BME280;9582;52.018;6.306;2022-09-03T06:02:49;101036.56;;;16.54;59.17
18900;BME280;9582;52.018;6.306;2022-09-03T06:05:15;101035.06;;;16.89;58.01
18900;BME280;9582;52.018;6.306;2022-09-03T06:07:43;101042.25;;;17.25;57.25
18900;BME280;9582;52.018;6.306;2022-09-03T06:10:09;101036.66;;;17.67;56.32
18900;BME280;9582;52.018;6.306;2022-09-03T06:12:37;101041.84;;;17.69;55.17
18900;BME280;9582;52.018;6.306;2022-09-03T06:15:04;101040.09;;;17.93;55.36
18900;BME280;9582;52.018;6.306;2022-09-03T06:17:32;101045.03;;;18.10;54.66
18900;BME280;9582;52.018;6.306;2022-09-03T06:19:58;101044.53;;;18.29;54.09
18900;BME280;9582;52.018;6.306;2022-09-03T06:22:25;101039.19;;;18.41;53.58
18900;BME280;9582;52.018;6.306;2022-09-03T06:24:54;101039.31;;;18.64;53.39
18900;BME280;9582;52.018;6.306;2022-09-03T06:27:20;101040.03;;;18.66;52.75
18900;BME280;9582;52.018;6.306;2022-09-03T06:29:47;101038.34;;;18.65;52.99
18900;BME280;9582;52.018;6.306;2022-09-03T06:32:14;101041.38;;;18.71;53.21
18900;BME280;9582;52.018;6.306;2022-09-03T06:34:42;101034.25;;;18.61;52.84
18900;BME280;9582;52.018;6.306;2022-09-03T06:37:08;101039.13;;;18.78;52.51
18900;BME280;9582;52.018;6.306;2022-09-03T06:39:35;101039.50;;;18.84;51.85
18900;BME280;9582;52.018;6.306;2022-09-03T06:42:01;101034.59;;;18.91;52.07
18900;BME280;9582;52.018;6.306;2022-09-03T06:44:34;101035.34;;;19.04;52.01
18900;BME280;9582;52.018;6.306;2022-09-03T06:47:00;101037.03;;;19.05;52.42
18900;BME280;9582;52.018;6.306;2022-09-03T06:49:27;101040.66;;;19.04;52.04
18900;BME280;9582;52.018;6.306;2022-09-03T06:51:56;101042.56;;;19.02;51.82
18900;BME280;9582;52.018;6.306;2022-09-03T06:54:22;101040.50;;;19.06;51.98
18900;BME280;9582;52.018;6.306;2022-09-03T06:56:49;101043.09;;;19.18;51.87
18900;BME280;9582;52.018;6.306;2022-09-03T06:59:15;101037.31;;;19.35;51.37
18900;BME280;9582;52.018;6.306;2022-09-03T07:01:42;101030.13;;;19.48;51.11
18900;BME280;9582;52.018;6.306;2022-09-03T07:04:10;101038.81;;;19.73;51.46
18900;BME280;9582;52.018;6.306;2022-09-03T07:06:38;101041.19;;;19.65;50.83
18900;BME280;9582;52.018;6.306;2022-09-03T07:09:09;101046.41;;;19.77;50.78
18900;BME280;9582;52.018;6.306;2022-09-03T07:11:36;101039.88;;;19.92;50.45
18900;BME280;9582;52.018;6.306;2022-09-03T07:14:10;101039.97;;;19.91;50.38
18900;BME280;9582;52.018;6.306;2022-09-03T07:16:37;101035.75;;;19.99;50.82
18900;BME280;9582;52.018;6.306;2022-09-03T07:19:06;101045.72;;;20.18;49.96
18900;BME280;9582;52.018;6.306;2022-09-03T07:21:35;101048.75;;;20.25;50.14
18900;BME280;9582;52.018;6.306;2022-09-03T07:24:03;101049.81;;;20.22;49.95
18900;BME280;9582;52.018;6.306;2022-09-03T07:26:32;101040.91;;;20.34;49.34
18900;BME280;9582;52.018;6.306;2022-09-03T07:28:59;101043.38;;;20.47;49.89
18900;BME280;9582;52.018;6.306;2022-09-03T07:31:27;101048.72;;;20.67;49.64
18900;BME280;9582;52.018;6.306;2022-09-03T07:33:54;101044.16;;;20.90;47.96
18900;BME280;9582;52.018;6.306;2022-09-03T07:36:22;101036.03;;;20.92;48.37
18900;BME280;9582;52.018;6.306;2022-09-03T07:38:49;101035.38;;;21.10;47.63
18900;BME280;9582;52.018;6.306;2022-09-03T07:41:16;101040.94;;;21.07;46.73
18900;BME280;9582;52.018;6.306;2022-09-03T07:43:45;101042.09;;;21.14;47.90
18900;BME280;9582;52.018;6.306;2022-09-03T07:46:13;101042.78;;;21.37;46.87
18900;BME280;9582;52.018;6.306;2022-09-03T07:48:45;101033.69;;;21.40;47.27
18900;BME280;9582;52.018;6.306;2022-09-03T07:51:13;101038.03;;;21.41;47.49
18900;BME280;9582;52.018;6.306;2022-09-03T07:53:40;101032.97;;;21.28;47.08
18900;BME280;9582;52.018;6.306;2022-09-03T07:56:08;101040.19;;;21.26;47.53
18900;BME280;9582;52.018;6.306;2022-09-03T07:58:36;101031.09;;;21.19;47.06
18900;BME280;9582;52.018;6.306;2022-09-03T08:01:07;101035.03;;;21.24;47.30
18900;BME280;9582;52.018;6.306;2022-09-03T08:03:34;101038.28;;;21.28;47.17
18900;BME280;9582;52.018;6.306;2022-09-03T08:06:01;101033.75;;;21.49;47.41
18900;BME280;9582;52.018;6.306;2022-09-03T08:08:28;101033.16;;;21.46;46.89
18900;BME280;9582;52.018;6.306;2022-09-03T08:11:02;101034.59;;;21.50;46.89
18900;BME280;9582;52.018;6.306;2022-09-03T08:13:29;101033.44;;;21.73;45.75
18900;BME280;9582;52.018;6.306;2022-09-03T08:15:56;101030.28;;;21.89;45.58
18900;BME280;9582;52.018;6.306;2022-09-03T08:18:26;101027.84;;;21.85;46.16
18900;BME280;9582;52.018;6.306;2022-09-03T08:21:03;101037.31;;;21.99;46.52
18900;BME280;9582;52.018;6.306;2022-09-03T08:23:31;101037.63;;;22.06;46.01
18900;BME280;9582;52.018;6.306;2022-09-03T08:25:58;101035.69;;;22.27;46.54
18900;BME280;9582;52.018;6.306;2022-09-03T08:28:25;101029.25;;;22.49;45.76
18900;BME280;9582;52.018;6.306;2022-09-03T08:30:52;101025.47;;;22.51;45.49
18900;BME280;9582;52.018;6.306;2022-09-03T08:33:19;101034.19;;;22.72;44.95
18900;BME280;9582;52.018;6.306;2022-09-03T08:36:03;101028.31;;;22.69;43.70
18900;BME280;9582;52.018;6.306;2022-09-03T08:38:31;101036.59;;;22.66;44.35
18900;BME280;9582;52.018;6.306;2022-09-03T08:41:06;101046.28;;;22.86;45.37
18900;BME280;9582;52.018;6.306;2022-09-03T08:43:45;101044.25;;;22.97;44.10
18900;BME280;9582;52.018;6.306;2022-09-03T08:46:16;101035.53;;;23.15;43.44
18900;BME280;9582;52.018;6.306;2022-09-03T08:48:43;101038.34;;;23.23;43.91
18900;BME280;9582;52.018;6.306;2022-09-03T08:51:14;101034.78;;;23.41;42.89
18900;BME280;9582;52.018;6.306;2022-09-03T08:53:45;101031.50;;;23.57;43.00
18900;BME280;9582;52.018;6.306;2022-09-03T08:56:19;101032.59;;;23.64;42.22
18900;BME280;9582;52.018;6.306;2022-09-03T08:58:46;101031.13;;;23.79;41.90
18900;BME280;9582;52.018;6.306;2022-09-03T09:01:18;101032.53;;;23.74;41.38
18900;BME280;9582;52.018;6.306;2022-09-03T09:04:00;101036.88;;;24.02;42.43
18900;BME280;9582;52.018;6.306;2022-09-03T09:06:34;101037.31;;;24.07;41.19
18900;BME280;9582;52.018;6.306;2022-09-03T09:09:15;101033.72;;;24.16;41.47
18900;BME280;9582;52.018;6.306;2022-09-03T09:11:55;101035.47;;;24.07;42.17
18900;BME280;9582;52.018;6.306;2022-09-03T09:14:27;101038.44;;;24.32;41.67
18900;BME280;9582;52.018;6.306;2022-09-03T09:17:02;101038.97;;;24.35;41.15
18900;BME280;9582;52.018;6.306;2022-09-03T09:19:39;101030.94;;;24.53;39.69
18900;BME280;9582;52.018;6.306;2022-09-03T09:22:13;101036.69;;;24.40;40.90
18900;BME280;9582;52.018;6.306;2022-09-03T09:24:46;101033.53;;;24.45;39.27
18900;BME280;9582;52.018;6.306;2022-09-03T09:27:15;101023.63;;;24.55;41.47
18900;BME280;9582;52.018;6.306;2022-09-03T09:29:45;101026.38;;;24.81;40.55
18900;BME280;9582;52.018;6.306;2022-09-03T09:32:13;101021.69;;;24.65;40.54
18900;BME280;9582;52.018;6.306;2022-09-03T09:34:44;101022.31;;;24.59;40.67
18900;BME280;9582;52.018;6.306;2022-09-03T09:37:14;101024.91;;;24.51;41.46
18900;BME280;9582;52.018;6.306;2022-09-03T09:39:53;101013.28;;;24.60;40.63
18900;BME280;9582;52.018;6.306;2022-09-03T09:42:21;101013.84;;;24.46;40.63
18900;BME280;9582;52.018;6.306;2022-09-03T09:44:48;101011.06;;;24.73;40.83
18900;BME280;9582;52.018;6.306;2022-09-03T09:47:21;101011.97;;;24.99;39.51
18900;BME280;9582;52.018;6.306;2022-09-03T09:49:51;101018.13;;;25.17;39.86
18900;BME280;9582;52.018;6.306;2022-09-03T09:52:20;101014.59;;;25.43;39.57
18900;BME280;9582;52.018;6.306;2022-09-03T09:54:51;101024.72;;;25.57;38.67
18900;BME280;9582;52.018;6.306;2022-09-03T09:57:22;101015.22;;;25.62;38.93
18900;BME280;9582;52.018;6.306;2022-09-03T09:59:49;101017.75;;;25.72;38.00
18900;BME280;9582;52.018;6.306;2022-09-03T10:02:37;101012.88;;;25.67;39.33
18900;BME280;9582;52.018;6.306;2022-09-03T10:05:18;101011.13;;;25.92;38.84
18900;BME280;9582;52.018;6.306;2022-09-03T10:07:55;101015.63;;;25.92;37.68
18900;BME280;9582;52.018;6.306;2022-09-03T10:10:25;101014.31;;;25.88;38.93
18900;BME280;9582;52.018;6.306;2022-09-03T10:12:56;101007.63;;;26.00;38.69
18900;BME280;9582;52.018;6.306;2022-09-03T10:15:31;101014.09;;;25.81;37.49
18900;BME280;9582;52.018;6.306;2022-09-03T10:18:03;101016.13;;;25.79;37.63
18900;BME280;9582;52.018;6.306;2022-09-03T10:20:38;101014.44;;;25.86;38.72
18900;BME280;9582;52.018;6.306;2022-09-03T10:23:16;101016.84;;;26.05;37.69
18900;BME280;9582;52.018;6.306;2022-09-03T10:25:56;101011.53;;;26.13;37.11
18900;BME280;9582;52.018;6.306;2022-09-03T10:28:29;101011.06;;;26.18;37.21
18900;BME280;9582;52.018;6.306;2022-09-03T10:31:28;101006.75;;;26.33;36.60
18900;BME280;9582;52.018;6.306;2022-09-03T10:34:06;100999.53;;;26.50;37.42
18900;BME280;9582;52.018;6.306;2022-09-03T10:36:41;101010.44;;;26.64;36.65
18900;BME280;9582;52.018;6.306;2022-09-03T10:39:15;100999.22;;;26.45;37.25
18900;BME280;9582;52.018;6.306;2022-09-03T10:41:56;101005.91;;;26.65;37.01
18900;BME280;9582;52.018;6.306;2022-09-03T10:44:34;101004.56;;;26.61;36.83
18900;BME280;9582;52.018;6.306;2022-09-03T10:47:36;100998.19;;;26.54;36.17
18900;BME280;9582;52.018;6.306;2022-09-03T10:50:12;100997.19;;;26.55;37.10
18900;BME280;9582;52.018;6.306;2022-09-03T10:52:55;100993.00;;;26.36;36.75
18900;BME280;9582;52.018;6.306;2022-09-03T10:55:31;100994.53;;;25.89;37.56
18900;BME280;9582;52.018;6.306;2022-09-03T10:58:08;100998.09;;;25.55;38.98
18900;BME280;9582;52.018;6.306;2022-09-03T11:00:40;100993.28;;;25.67;38.83
18900;BME280;9582;52.018;6.306;2022-09-03T11:03:29;100993.34;;;25.83;39.63
18900;BME280;9582;52.018;6.306;2022-09-03T11:06:03;100998.06;;;25.89;38.63
18900;BME280;9582;52.018;6.306;2022-09-03T11:08:35;100990.13;;;26.29;38.48
18900;BME280;9582;52.018;6.306;2022-09-03T11:11:10;100992.50;;;26.57;37.26
18900;BME280;9582;52.018;6.306;2022-09-03T11:13:42;100999.88;;;26.63;36.87
18900;BME280;9582;52.018;6.306;2022-09-03T11:16:17;100995.34;;;26.71;37.64
18900;BME280;9582;52.018;6.306;2022-09-03T11:18:48;100992.84;;;26.86;36.69
18900;BME280;9582;52.018;6.306;2022-09-03T11:21:19;100991.50;;;26.98;36.79
18900;BME280;9582;52.018;6.306;2022-09-03T11:23:52;100995.66;;;26.76;37.12
18900;BME280;9582;52.018;6.306;2022-09-03T11:26:26;100989.47;;;27.08;36.08
18900;BME280;9582;52.018;6.306;2022-09-03T11:28:57;100992.47;;;27.05;37.45
18900;BME280;9582;52.018;6.306;2022-09-03T11:31:33;100990.31;;;27.01;37.03
18900;BME280;9582;52.018;6.306;2022-09-03T11:34:07;100989.97;;;27.12;35.90
18900;BME280;9582;52.018;6.306;2022-09-03T11:36:36;100984.91;;;27.17;36.02
18900;BME280;9582;52.018;6.306;2022-09-03T11:39:17;100987.94;;;27.14;35.53
18900;BME280;9582;52.018;6.306;2022-09-03T11:41:57;100976.34;;;27.13;35.36
18900;BME280;9582;52.018;6.306;2022-09-03T11:44:34;100981.22;;;27.18;37.02
18900;BME280;9582;52.018;6.306;2022-09-03T11:47:12;100986.47;;;26.95;36.64
18900;BME280;9582;52.018;6.306;2022-09-03T11:49:44;100975.75;;;26.87;36.57
18900;BME280;9582;52.018;6.306;2022-09-03T11:52:12;100969.88;;;26.75;37.43
18900;BME280;9582;52.018;6.306;2022-09-03T11:54:43;100969.69;;;26.61;36.71
18900;BME280;9582;52.018;6.306;2022-09-03T11:57:14;100977.94;;;26.83;36.02
18900;BME280;9582;52.018;6.306;2022-09-03T11:59:42;100976.06;;;27.00;36.82
18900;BME280;9582;52.018;6.306;2022-09-03T12:02:18;100974.03;;;27.02;36.71
18900;BME280;9582;52.018;6.306;2022-09-03T12:04:51;100974.19;;;27.09;36.61
18900;BME280;9582;52.018;6.306;2022-09-03T12:07:47;100969.69;;;26.77;35.82
18900;BME280;9582;52.018;6.306;2022-09-03T12:10:26;100960.66;;;26.70;37.19
18900;BME280;9582;52.018;6.306;2022-09-03T12:13:11;100963.97;;;26.96;36.78
18900;BME280;9582;52.018;6.306;2022-09-03T12:15:53;100963.41;;;27.25;35.91
18900;BME280;9582;52.018;6.306;2022-09-03T12:18:25;100964.53;;;27.38;35.99
18900;BME280;9582;52.018;6.306;2022-09-03T12:21:03;100966.13;;;27.17;36.95
18900;BME280;9582;52.018;6.306;2022-09-03T12:23:32;100967.03;;;26.85;37.62
18900;BME280;9582;52.018;6.306;2022-09-03T12:26:02;100960.81;;;26.92;36.14
18900;BME280;9582;52.018;6.306;2022-09-03T12:28:34;100965.34;;;26.92;37.80
18900;BME280;9582;52.018;6.306;2022-09-03T12:31:07;100961.28;;;26.96;38.13
18900;BME280;9582;52.018;6.306;2022-09-03T12:33:46;100956.50;;;27.30;37.42
18900;BME280;9582;52.018;6.306;2022-09-03T12:36:13;100958.56;;;27.67;36.63
18900;BME280;9582;52.018;6.306;2022-09-03T12:38:40;100961.94;;;27.61;35.31
18900;BME280;9582;52.018;6.306;2022-09-03T12:41:19;100961.50;;;27.49;35.45
18900;BME280;9582;52.018;6.306;2022-09-03T12:43:51;100959.13;;;27.55;36.75
18900;BME280;9582;52.018;6.306;2022-09-03T12:46:22;100964.53;;;27.46;36.72
18900;BME280;9582;52.018;6.306;2022-09-03T12:48:53;100956.00;;;27.43;35.87
18900;BME280;9582;52.018;6.306;2022-09-03T12:51:19;100950.09;;;27.39;35.50
18900;BME280;9582;52.018;6.306;2022-09-03T12:53:48;100950.28;;;27.77;36.29
18900;BME280;9582;52.018;6.306;2022-09-03T12:56:17;100949.31;;;27.70;35.42
18900;BME280;9582;52.018;6.306;2022-09-03T12:58:49;100938.44;;;27.63;36.48
18900;BME280;9582;52.018;6.306;2022-09-03T13:01:20;100946.16;;;27.89;36.14
18900;BME280;9582;52.018;6.306;2022-09-03T13:03:50;100948.47;;;27.69;35.71
18900;BME280;9582;52.018;6.306;2022-09-03T13:06:20;100945.47;;;27.64;35.84
18900;BME280;9582;52.018;6.306;2022-09-03T13:08:51;100946.91;;;27.36;36.35
18900;BME280;9582;52.018;6.306;2022-09-03T13:11:21;100946.56;;;27.47;36.66
18900;BME280;9582;52.018;6.306;2022-09-03T13:13:55;100944.41;;;27.42;37.48
18900;BME280;9582;52.018;6.306;2022-09-03T13:16:50;100942.34;;;27.52;36.99
18900;BME280;9582;52.018;6.306;2022-09-03T13:19:30;100936.16;;;27.75;36.84
18900;BME280;9582;52.018;6.306;2022-09-03T13:22:07;100941.81;;;27.88;36.92
18900;BME280;9582;52.018;6.306;2022-09-03T13:24:45;100947.78;;;27.98;36.17